sensor_id;sensor_type;location;lat;lon;timestamp;pressure;altitude;pressure_sealevel;temperature;humidity
30598;BME280;17365;48.878;8.334;2023-09-12T00:01:46;99590.41;;;20.92;87.84
30598;BME280;17365;48.878;8.334;2023-09-12T00:04:11;99588.25;;;20.64;89.77
30598;BME280;17365;48.878;8.334;2023-09-12T00:06:36;99595.25;;;20.47;91.02
30598;BME280;17365;48.878;8.334;2023-09-12T00:09:01;99592.28;;;20.72;89.15
30598;BME280;17365;48.878;8.334;2023-09-12T00:11:30;99596.44;;;20.58;89.41
30598;BME280;17365;48.878;8.334;2023-09-12T00:13:55;99586.13;;;20.73;89.01
30598;BME280;17365;48.878;8.334;2023-09-12T00:16:20;99583.00;;;20.64;89.13
30598;BME280;17365;48.878;8.334;2023-09-12T00:18:46;99586.97;;;20.73;88.71
30598;BME280;17365;48.878;8.334;2023-09-12T00:21:11;99583.84;;;20.65;89.24
30598;BME280;17365;48.878;8.334;2023-09-12T00:23:36;99590.41;;;20.56;90.26
30598;BME280;17365;48.878;8.334;2023-09-12T00:26:01;99587.19;;;20.50;91.07
30598;BME280;17365;48.878;8.334;2023-09-12T00:28:26;99590.50;;;20.72;89.41
30598;BME280;17365;48.878;8.334;2023-09-12T00:30:52;99580.00;;;20.53;90.83
30598;BME280;17365;48.878;8.334;2023-09-12T00:33:17;99580.63;;;20.21;92.64
30598;BME280;17365;48.878;8.334;2023-09-12T00:35:43;99574.09;;;20.48;90.59
30598;BME280;17365;48.878;8.334;2023-09-12T00:38:08;99571.81;;;20.41;91.10
30598;BME280;17365;48.878;8.334;2023-09-12T00:40:33;99569.16;;;20.59;89.81
30598;BME280;17365;48.878;8.334;2023-09-12T00:42:59;99574.31;;;20.62;89.68
30598;BME280;17365;48.878;8.334;2023-09-12T00:45:24;99579.63;;;20.61;89.61
30598;BME280;17365;48.878;8.334;2023-09-12T00:47:49;99581.00;;;20.51;90.52
30598;BME280;17365;48.878;8.334;2023-09-12T00:50:16;99568.56;;;20.15;92.77
30598;BME280;17365;48.878;8.334;2023-09-12T00:52:41;99570.59;;;20.10;93.80
30598;BME280;17365;48.878;8.334;2023-09-12T00:55:07;99570.88;;;20.23;92.27
30598;BME280;17365;48.878;8.334;2023-09-12T00:57:33;99569.75;;;20.28;91.40
30598;BME280;17365;48.878;8.334;2023-09-12T00:59:59;99568.59;;;20.34;91.36
30598;BME280;17365;48.878;8.334;2023-09-12T01:02:26;99570.66;;;20.27;91.61
30598;BME280;17365;48.878;8.334;2023-09-12T01:04:51;99572.47;;;20.46;90.60
30598;BME280;17365;48.878;8.334;2023-09-12T01:07:16;99572.66;;;20.22;91.91
30598;BME280;17365;48.878;8.334;2023-09-12T01:09:42;99570.09;;;20.40;90.67
30598;BME280;17365;48.878;8.334;2023-09-12T01:12:07;99573.66;;;20.39;90.85
30598;BME280;17365;48.878;8.334;2023-09-12T01:14:33;99570.88;;;20.42;90.81
30598;BME280;17365;48.878;8.334;2023-09-12T01:16:58;99575.00;;;20.28;91.38
30598;BME280;17365;48.878;8.334;2023-09-12T01:19:24;99570.00;;;20.22;91.53
30598;BME280;17365;48.878;8.334;2023-09-12T01:24:26;99568.47;;;20.18;91.12
30598;BME280;17365;48.878;8.334;2023-09-12T01:29:37;99578.22;;;20.16;90.67
30598;BME280;17365;48.878;8.334;2023-09-12T01:32:03;99579.25;;;19.93;92.97
30598;BME280;17365;48.878;8.334;2023-09-12T01:34:29;99570.72;;;20.07;92.18
30598;BME280;17365;48.878;8.334;2023-09-12T01:36:54;99578.63;;;20.07;93.09
30598;BME280;17365;48.878;8.334;2023-09-12T01:39:19;99577.25;;;19.98;93.76
30598;BME280;17365;48.878;8.334;2023-09-12T01:41:45;99570.91;;;19.84;95.19
30598;BME280;17365;48.878;8.334;2023-09-12T01:44:11;99575.25;;;19.85;95.63
30598;BME280;17365;48.878;8.334;2023-09-12T01:46:36;99562.47;;;19.96;94.11
30598;BME280;17365;48.878;8.334;2023-09-12T01:49:02;99566.22;;;19.90;94.37
30598;BME280;17365;48.878;8.334;2023-09-12T01:51:29;99568.03;;;20.09;93.35
30598;BME280;17365;48.878;8.334;2023-09-12T01:53:55;99561.53;;;20.16;92.93
30598;BME280;17365;48.878;8.334;2023-09-12T01:56:20;99568.88;;;20.09;93.20
30598;BME280;17365;48.878;8.334;2023-09-12T01:58:46;99559.78;;;20.16;92.78
30598;BME280;17365;48.878;8.334;2023-09-12T02:01:11;99554.69;;;19.93;94.28
30598;BME280;17365;48.878;8.334;2023-09-12T02:03:37;99551.00;;;19.58;96.92
30598;BME280;17365;48.878;8.334;2023-09-12T02:06:02;99557.75;;;19.43;97.79
30598;BME280;17365;48.878;8.334;2023-09-12T02:08:27;99547.69;;;19.53;98.11
30598;BME280;17365;48.878;8.334;2023-09-12T02:10:52;99551.19;;;19.73;96.91
30598;BME280;17365;48.878;8.334;2023-09-12T02:13:17;99552.94;;;19.93;95.17
30598;BME280;17365;48.878;8.334;2023-09-12T02:15:42;99560.88;;;19.73;96.04
30598;BME280;17365;48.878;8.334;2023-09-12T02:18:08;99563.34;;;19.76;97.01
30598;BME280;17365;48.878;8.334;2023-09-12T02:20:37;99574.03;;;19.92;95.62
30598;BME280;17365;48.878;8.334;2023-09-12T02:23:02;99566.97;;;19.73;96.63
30598;BME280;17365;48.878;8.334;2023-09-12T02:25:28;99560.72;;;19.76;96.07
30598;BME280;17365;48.878;8.334;2023-09-12T02:27:53;99563.88;;;19.84;95.92
30598;BME280;17365;48.878;8.334;2023-09-12T02:30:18;99573.69;;;19.99;94.17
30598;BME280;17365;48.878;8.334;2023-09-12T02:32:43;99573.34;;;19.68;96.42
30598;BME280;17365;48.878;8.334;2023-09-12T02:35:08;99569.50;;;19.95;94.90
30598;BME280;17365;48.878;8.334;2023-09-12T02:37:33;99564.72;;;19.85;95.77
30598;BME280;17365;48.878;8.334;2023-09-12T02:39:59;99570.91;;;19.84;95.42
30598;BME280;17365;48.878;8.334;2023-09-12T02:42:24;99580.00;;;19.76;96.10
30598;BME280;17365;48.878;8.334;2023-09-12T02:44:50;99561.03;;;19.89;95.22
30598;BME280;17365;48.878;8.334;2023-09-12T02:47:15;99568.34;;;19.82;95.38
30598;BME280;17365;48.878;8.334;2023-09-12T02:49:40;99576.34;;;19.60;97.51
30598;BME280;17365;48.878;8.334;2023-09-12T02:52:05;99568.84;;;19.71;95.91
30598;BME280;17365;48.878;8.334;2023-09-12T02:54:30;99584.06;;;19.43;97.52
30598;BME280;17365;48.878;8.334;2023-09-12T02:56:56;99572.22;;;19.33;98.59
30598;BME280;17365;48.878;8.334;2023-09-12T02:59:21;99567.75;;;19.14;100.00
30598;BME280;17365;48.878;8.334;2023-09-12T03:01:46;99567.88;;;19.11;100.00
30598;BME280;17365;48.878;8.334;2023-09-12T03:04:11;99570.00;;;19.02;100.00
30598;BME280;17365;48.878;8.334;2023-09-12T03:06:36;99564.59;;;19.27;100.00
30598;BME280;17365;48.878;8.334;2023-09-12T03:09:02;99571.75;;;19.23;100.00
30598;BME280;17365;48.878;8.334;2023-09-12T03:11:28;99568.63;;;19.56;98.73
30598;BME280;17365;48.878;8.334;2023-09-12T03:13:53;99570.88;;;19.65;97.95
30598;BME280;17365;48.878;8.334;2023-09-12T03:16:18;99568.53;;;19.77;97.08
30598;BME280;17365;48.878;8.334;2023-09-12T03:18:43;99567.38;;;19.64;98.29
30598;BME280;17365;48.878;8.334;2023-09-12T03:21:09;99566.50;;;19.84;96.67
30598;BME280;17365;48.878;8.334;2023-09-12T03:23:34;99558.22;;;19.73;97.12
30598;BME280;17365;48.878;8.334;2023-09-12T03:26:00;99558.09;;;19.76;97.18
30598;BME280;17365;48.878;8.334;2023-09-12T03:28:25;99555.59;;;19.73;97.21
30598;BME280;17365;48.878;8.334;2023-09-12T03:30:50;99555.91;;;19.86;96.32
30598;BME280;17365;48.878;8.334;2023-09-12T03:33:15;99561.47;;;19.98;95.56
30598;BME280;17365;48.878;8.334;2023-09-12T03:35:42;99563.94;;;20.01;95.70
30598;BME280;17365;48.878;8.334;2023-09-12T03:38:07;99567.44;;;20.02;95.60
30598;BME280;17365;48.878;8.334;2023-09-12T03:40:33;99554.94;;;20.07;94.75
30598;BME280;17365;48.878;8.334;2023-09-12T03:42:58;99556.72;;;20.06;94.67
30598;BME280;17365;48.878;8.334;2023-09-12T03:45:23;99554.75;;;19.91;95.15
30598;BME280;17365;48.878;8.334;2023-09-12T03:47:49;99551.28;;;19.91;95.82
30598;BME280;17365;48.878;8.334;2023-09-12T03:50:14;99544.22;;;19.72;96.55
30598;BME280;17365;48.878;8.334;2023-09-12T03:52:39;99551.50;;;19.86;96.32
30598;BME280;17365;48.878;8.334;2023-09-12T03:55:05;99555.00;;;19.66;98.14
30598;BME280;17365;48.878;8.334;2023-09-12T03:57:30;99552.34;;;19.87;96.62
30598;BME280;17365;48.878;8.334;2023-09-12T03:59:56;99556.41;;;19.94;96.18
30598;BME280;17365;48.878;8.334;2023-09-12T04:02:21;99558.72;;;19.81;96.99
30598;BME280;17365;48.878;8.334;2023-09-12T04:04:46;99555.56;;;19.93;95.57
30598;BME280;17365;48.878;8.334;2023-09-12T04:07:12;99554.09;;;19.67;97.55
30598;BME280;17365;48.878;8.334;2023-09-12T04:09:37;99555.00;;;19.66;97.95
30598;BME280;17365;48.878;8.334;2023-09-12T04:12:03;99550.19;;;19.76;96.99
30598;BME280;17365;48.878;8.334;2023-09-12T04:14:28;99553.75;;;19.75;96.88
30598;BME280;17365;48.878;8.334;2023-09-12T04:16:53;99562.63;;;19.52;99.03
30598;BME280;17365;48.878;8.334;2023-09-12T04:19:19;99559.88;;;19.75;97.28
30598;BME280;17365;48.878;8.334;2023-09-12T04:21:44;99572.78;;;19.61;97.75
30598;BME280;17365;48.878;8.334;2023-09-12T04:24:09;99566.59;;;19.62;98.00
30598;BME280;17365;48.878;8.334;2023-09-12T04:26:34;99570.63;;;19.71;97.75
30598;BME280;17365;48.878;8.334;2023-09-12T04:28:59;99577.97;;;19.63;98.04
30598;BME280;17365;48.878;8.334;2023-09-12T04:31:24;99577.09;;;19.42;99.37
30598;BME280;17365;48.878;8.334;2023-09-12T04:33:50;99579.53;;;19.26;100.00
30598;BME280;17365;48.878;8.334;2023-09-12T04:36:16;99580.00;;;18.94;100.00
30598;BME280;17365;48.878;8.334;2023-09-12T04:38:41;99573.56;;;19.01;100.00
30598;BME280;17365;48.878;8.334;2023-09-12T04:41:06;99577.34;;;19.36;100.00
30598;BME280;17365;48.878;8.334;2023-09-12T04:43:31;99580.78;;;19.58;100.00
30598;BME280;17365;48.878;8.334;2023-09-12T04:45:57;99583.41;;;19.58;99.91
30598;BME280;17365;48.878;8.334;2023-09-12T04:48:22;99577.34;;;19.36;100.00
30598;BME280;17365;48.878;8.334;2023-09-12T04:50:48;99587.91;;;19.56;100.00
30598;BME280;17365;48.878;8.334;2023-09-12T04:53:13;99590.78;;;19.50;100.00
30598;BME280;17365;48.878;8.334;2023-09-12T04:55:38;99587.63;;;19.42;100.00
30598;BME280;17365;48.878;8.334;2023-09-12T04:58:04;99588.00;;;19.53;100.00
30598;BME280;17365;48.878;8.334;2023-09-12T05:00:29;99596.16;;;19.47;100.00
30598;BME280;17365;48.878;8.334;2023-09-12T05:02:54;99604.78;;;19.51;100.00
30598;BME280;17365;48.878;8.334;2023-09-12T05:05:19;99605.09;;;19.43;100.00
30598;BME280;17365;48.878;8.334;2023-09-12T05:07:44;99607.41;;;19.51;100.00
30598;BME280;17365;48.878;8.334;2023-09-12T05:10:10;99605.31;;;19.59;100.00
30598;BME280;17365;48.878;8.334;2023-09-12T05:12:35;99608.03;;;19.57;100.00
30598;BME280;17365;48.878;8.334;2023-09-12T05:15:00;99606.81;;;19.44;100.00
30598;BME280;17365;48.878;8.334;2023-09-12T05:17:25;99605.16;;;19.63;100.00
30598;BME280;17365;48.878;8.334;2023-09-12T05:19:50;99606.78;;;19.66;100.00
30598;BME280;17365;48.878;8.334;2023-09-12T05:22:16;99598.09;;;19.64;100.00
30598;BME280;17365;48.878;8.334;2023-09-12T05:24:41;99597.06;;;19.46;100.00
30598;BME280;17365;48.878;8.334;2023-09-12T05:27:06;99609.63;;;19.61;100.00
30598;BME280;17365;48.878;8.334;2023-09-12T05:29:31;99604.44;;;19.60;100.00
30598;BME280;17365;48.878;8.334;2023-09-12T05:31:56;99602.75;;;19.57;100.00
30598;BME280;17365;48.878;8.334;2023-09-12T05:34:22;99608.88;;;19.58;100.00
30598;BME280;17365;48.878;8.334;2023-09-12T05:36:47;99600.31;;;19.53;100.00
30598;BME280;17365;48.878;8.334;2023-09-12T05:39:12;99606.78;;;19.66;100.00
30598;BME280;17365;48.878;8.334;2023-09-12T05:41:39;99619.31;;;19.39;100.00
30598;BME280;17365;48.878;8.334;2023-09-12T05:44:04;99614.91;;;19.39;100.00
30598;BME280;17365;48.878;8.334;2023-09-12T05:46:29;99612.03;;;19.66;100.00
30598;BME280;17365;48.878;8.334;2023-09-12T05:48:54;99604.66;;;19.54;99.75
30598;BME280;17365;48.878;8.334;2023-09-12T05:51:19;99597.44;;;19.59;99.51
30598;BME280;17365;48.878;8.334;2023-09-12T05:53:44;99597.81;;;19.49;100.00
30598;BME280;17365;48.878;8.334;2023-09-12T05:56:10;99598.94;;;19.44;100.00
30598;BME280;17365;48.878;8.334;2023-09-12T05:58:35;99588.00;;;19.53;100.00
30598;BME280;17365;48.878;8.334;2023-09-12T06:01:01;99593.47;;;19.69;100.00
30598;BME280;17365;48.878;8.334;2023-09-12T06:03:26;99592.22;;;19.77;100.00
30598;BME280;17365;48.878;8.334;2023-09-12T06:05:51;99586.72;;;19.84;99.68
30598;BME280;17365;48.878;8.334;2023-09-12T06:08:16;99580.22;;;19.91;99.09
30598;BME280;17365;48.878;8.334;2023-09-12T06:10:42;99587.56;;;20.03;98.46
30598;BME280;17365;48.878;8.334;2023-09-12T06:13:07;99592.44;;;20.12;97.61
30598;BME280;17365;48.878;8.334;2023-09-12T06:15:32;99596.09;;;20.28;97.46
30598;BME280;17365;48.878;8.334;2023-09-12T06:17:58;99593.69;;;20.43;96.19
30598;BME280;17365;48.878;8.334;2023-09-12T06:20:23;99609.25;;;20.28;97.18
30598;BME280;17365;48.878;8.334;2023-09-12T06:22:48;99618.81;;;20.50;95.75
30598;BME280;17365;48.878;8.334;2023-09-12T06:25:14;99613.44;;;20.32;96.76
30598;BME280;17365;48.878;8.334;2023-09-12T06:27:39;99613.59;;;20.67;95.39
30598;BME280;17365;48.878;8.334;2023-09-12T06:30:04;99614.44;;;20.86;94.31
30598;BME280;17365;48.878;8.334;2023-09-12T06:32:30;99618.97;;;21.02;92.42
30598;BME280;17365;48.878;8.334;2023-09-12T06:34:55;99625.09;;;21.02;91.91
30598;BME280;17365;48.878;8.334;2023-09-12T06:37:20;99628.81;;;20.98;91.57
30598;BME280;17365;48.878;8.334;2023-09-12T06:39:48;99626.28;;;20.78;91.77
30598;BME280;17365;48.878;8.334;2023-09-12T06:42:14;99623.91;;;20.90;92.22
30598;BME280;17365;48.878;8.334;2023-09-12T06:44:39;99620.50;;;21.06;91.86
30598;BME280;17365;48.878;8.334;2023-09-12T06:47:04;99633.53;;;20.91;92.45
30598;BME280;17365;48.878;8.334;2023-09-12T06:49:30;99630.97;;;20.90;92.77
30598;BME280;17365;48.878;8.334;2023-09-12T06:51:57;99634.41;;;21.09;91.97
30598;BME280;17365;48.878;8.334;2023-09-12T06:54:22;99633.13;;;21.18;91.50
30598;BME280;17365;48.878;8.334;2023-09-12T06:56:47;99628.34;;;21.43;89.58
30598;BME280;17365;48.878;8.334;2023-09-12T06:59:12;99637.66;;;21.50;88.61
30598;BME280;17365;48.878;8.334;2023-09-12T07:01:37;99637.00;;;21.28;88.67
30598;BME280;17365;48.878;8.334;2023-09-12T07:04:03;99637.53;;;21.54;88.92
30598;BME280;17365;48.878;8.334;2023-09-12T07:06:28;99644.34;;;21.75;88.38
30598;BME280;17365;48.878;8.334;2023-09-12T07:08:53;99637.28;;;21.75;87.95
30598;BME280;17365;48.878;8.334;2023-09-12T07:11:18;99645.19;;;21.58;86.91
30598;BME280;17365;48.878;8.334;2023-09-12T07:13:44;99638.72;;;21.98;86.67
30598;BME280;17365;48.878;8.334;2023-09-12T07:16:09;99637.06;;;22.13;86.25
30598;BME280;17365;48.878;8.334;2023-09-12T07:18:35;99638.22;;;22.07;85.93
30598;BME280;17365;48.878;8.334;2023-09-12T07:21:01;99633.38;;;22.33;84.15
30598;BME280;17365;48.878;8.334;2023-09-12T07:23:27;99632.66;;;22.29;83.27
30598;BME280;17365;48.878;8.334;2023-09-12T07:25:53;99635.75;;;22.53;83.53
30598;BME280;17365;48.878;8.334;2023-09-12T07:28:20;99635.44;;;22.59;82.48
30598;BME280;17365;48.878;8.334;2023-09-12T07:30:45;99636.03;;;22.96;81.83
30598;BME280;17365;48.878;8.334;2023-09-12T07:33:11;99628.94;;;22.97;79.43
30598;BME280;17365;48.878;8.334;2023-09-12T07:35:36;99630.94;;;22.93;79.46
30598;BME280;17365;48.878;8.334;2023-09-12T07:38:01;99632.53;;;22.80;79.55
30598;BME280;17365;48.878;8.334;2023-09-12T07:40:26;99631.34;;;23.01;79.55
30598;BME280;17365;48.878;8.334;2023-09-12T07:42:52;99636.41;;;22.90;79.09
30598;BME280;17365;48.878;8.334;2023-09-12T07:45:19;99631.88;;;22.92;79.49
30598;BME280;17365;48.878;8.334;2023-09-12T07:47:45;99641.97;;;22.52;80.04
30598;BME280;17365;48.878;8.334;2023-09-12T07:50:10;99643.22;;;22.78;80.13
30598;BME280;17365;48.878;8.334;2023-09-12T07:52:35;99644.06;;;22.94;79.94
30598;BME280;17365;48.878;8.334;2023-09-12T07:55:01;99639.16;;;22.88;80.61
30598;BME280;17365;48.878;8.334;2023-09-12T07:57:27;99651.88;;;22.64;81.85
30598;BME280;17365;48.878;8.334;2023-09-12T07:59:53;99652.28;;;22.08;83.17
30598;BME280;17365;48.878;8.334;2023-09-12T08:02:18;99660.31;;;22.40;82.87
30598;BME280;17365;48.878;8.334;2023-09-12T08:04:43;99658.22;;;22.93;81.07
30598;BME280;17365;48.878;8.334;2023-09-12T08:07:08;99660.56;;;23.45;79.04
30598;BME280;17365;48.878;8.334;2023-09-12T08:09:50;99660.19;;;23.67;77.10
30598;BME280;17365;48.878;8.334;2023-09-12T08:12:15;99663.16;;;23.91;76.82
30598;BME280;17365;48.878;8.334;2023-09-12T08:14:40;99660.31;;;24.23;75.38
30598;BME280;17365;48.878;8.334;2023-09-12T08:17:06;99669.31;;;24.20;76.50
30598;BME280;17365;48.878;8.334;2023-09-12T08:19:31;99658.91;;;24.60;75.03
30598;BME280;17365;48.878;8.334;2023-09-12T08:21:56;99659.22;;;24.41;73.64
30598;BME280;17365;48.878;8.334;2023-09-12T08:24:21;99662.03;;;24.66;74.13
30598;BME280;17365;48.878;8.334;2023-09-12T08:26:47;99660.03;;;24.70;74.21
30598;BME280;17365;48.878;8.334;2023-09-12T08:29:12;99664.72;;;24.93;74.42
30598;BME280;17365;48.878;8.334;2023-09-12T08:31:37;99660.31;;;24.65;73.93
30598;BME280;17365;48.878;8.334;2023-09-12T08:34:02;99665.03;;;24.75;74.32
30598;BME280;17365;48.878;8.334;2023-09-12T08:36:27;99666.78;;;25.03;73.54
30598;BME280;17365;48.878;8.334;2023-09-12T08:38:53;99665.06;;;24.46;75.73
30598;BME280;17365;48.878;8.334;2023-09-12T08:41:18;99665.94;;;24.61;76.35
30598;BME280;17365;48.878;8.334;2023-09-12T08:43:43;99664.94;;;24.76;76.84
30598;BME280;17365;48.878;8.334;2023-09-12T08:46:09;99666.84;;;24.74;75.91
30598;BME280;17365;48.878;8.334;2023-09-12T08:48:35;99661.31;;;25.06;75.77
30598;BME280;17365;48.878;8.334;2023-09-12T08:51:02;99659.13;;;25.25;74.68
30598;BME280;17365;48.878;8.334;2023-09-12T08:53:29;99659.41;;;25.47;71.78
30598;BME280;17365;48.878;8.334;2023-09-12T08:55:54;99670.06;;;25.20;71.35
30598;BME280;17365;48.878;8.334;2023-09-12T08:58:19;99665.56;;;24.94;71.23
30598;BME280;17365;48.878;8.334;2023-09-12T09:00:45;99662.09;;;24.79;71.38
30598;BME280;17365;48.878;8.334;2023-09-12T09:03:11;99664.94;;;24.76;71.19
30598;BME280;17365;48.878;8.334;2023-09-12T09:05:37;99655.81;;;24.94;71.08
30598;BME280;17365;48.878;8.334;2023-09-12T09:08:04;99664.63;;;24.95;69.05
30598;BME280;17365;48.878;8.334;2023-09-12T09:10:29;99658.78;;;24.76;70.65
30598;BME280;17365;48.878;8.334;2023-09-12T09:12:57;99652.44;;;24.78;70.22
30598;BME280;17365;48.878;8.334;2023-09-12T09:15:26;99651.25;;;24.96;69.42
30598;BME280;17365;48.878;8.334;2023-09-12T09:17:52;99656.00;;;25.85;67.20
30598;BME280;17365;48.878;8.334;2023-09-12T09:20:27;99655.69;;;25.37;67.08
30598;BME280;17365;48.878;8.334;2023-09-12T09:23:03;99643.81;;;25.55;64.26
30598;BME280;17365;48.878;8.334;2023-09-12T09:25:34;99651.53;;;25.98;62.63
30598;BME280;17365;48.878;8.334;2023-09-12T09:28:02;99646.97;;;26.00;63.13
30598;BME280;17365;48.878;8.334;2023-09-12T09:30:39;99636.00;;;25.79;63.94
30598;BME280;17365;48.878;8.334;2023-09-12T09:33:04;99631.81;;;25.63;64.70
30598;BME280;17365;48.878;8.334;2023-09-12T09:35:30;99629.44;;;25.45;64.80
30598;BME280;17365;48.878;8.334;2023-09-12T09:37:55;99644.31;;;25.48;65.16
30598;BME280;17365;48.878;8.334;2023-09-12T09:40:21;99632.63;;;25.77;65.51
30598;BME280;17365;48.878;8.334;2023-09-12T09:42:47;99630.72;;;26.18;64.92
30598;BME280;17365;48.878;8.334;2023-09-12T09:45:12;99634.84;;;26.22;64.87
30598;BME280;17365;48.878;8.334;2023-09-12T09:47:37;99645.38;;;25.98;65.01
30598;BME280;17365;48.878;8.334;2023-09-12T09:50:02;99649.00;;;26.09;64.52
30598;BME280;17365;48.878;8.334;2023-09-12T09:52:28;99650.06;;;26.07;65.28
30598;BME280;17365;48.878;8.334;2023-09-12T09:54:53;99649.78;;;26.61;63.93
30598;BME280;17365;48.878;8.334;2023-09-12T09:57:18;99647.78;;;26.64;63.43
30598;BME280;17365;48.878;8.334;2023-09-12T09:59:43;99643.72;;;26.59;63.42
30598;BME280;17365;48.878;8.334;2023-09-12T10:02:14;99638.31;;;26.97;63.51
30598;BME280;17365;48.878;8.334;2023-09-12T10:04:41;99636.50;;;26.97;62.51
30598;BME280;17365;48.878;8.334;2023-09-12T10:07:08;99639.94;;;26.87;61.70
30598;BME280;17365;48.878;8.334;2023-09-12T10:09:34;99642.78;;;26.60;63.34
30598;BME280;17365;48.878;8.334;2023-09-12T10:12:00;99638.22;;;26.62;62.97
30598;BME280;17365;48.878;8.334;2023-09-12T10:14:26;99630.16;;;27.35;61.85
30598;BME280;17365;48.878;8.334;2023-09-12T10:16:51;99633.13;;;27.19;60.22
30598;BME280;17365;48.878;8.334;2023-09-12T10:19:25;99620.34;;;26.88;62.31
30598;BME280;17365;48.878;8.334;2023-09-12T10:24:17;99618.91;;;26.95;59.97
30598;BME280;17365;48.878;8.334;2023-09-12T10:26:43;99624.28;;;26.82;61.00
30598;BME280;17365;48.878;8.334;2023-09-12T10:29:12;99626.06;;;26.58;61.40
30598;BME280;17365;48.878;8.334;2023-09-12T10:31:37;99621.97;;;26.78;60.64
30598;BME280;17365;48.878;8.334;2023-09-12T10:34:03;99614.94;;;26.77;60.23
30598;BME280;17365;48.878;8.334;2023-09-12T10:36:29;99619.72;;;27.32;59.81
30598;BME280;17365;48.878;8.334;2023-09-12T10:38:54;99614.78;;;27.74;58.84
30598;BME280;17365;48.878;8.334;2023-09-12T10:41:20;99611.44;;;27.59;59.47
30598;BME280;17365;48.878;8.334;2023-09-12T10:43:46;99605.19;;;27.71;58.87
30598;BME280;17365;48.878;8.334;2023-09-12T10:46:15;99597.56;;;27.67;57.94
30598;BME280;17365;48.878;8.334;2023-09-12T10:48:40;99603.16;;;28.08;56.97
30598;BME280;17365;48.878;8.334;2023-09-12T10:51:06;99598.53;;;27.66;59.05
30598;BME280;17365;48.878;8.334;2023-09-12T10:53:32;99599.56;;;28.09;57.38
30598;BME280;17365;48.878;8.334;2023-09-12T10:58:32;99596.03;;;27.75;59.21
30598;BME280;17365;48.878;8.334;2023-09-12T11:01:21;99595.91;;;27.99;58.82
30598;BME280;17365;48.878;8.334;2023-09-12T11:03:46;99588.16;;;28.30;58.29
30598;BME280;17365;48.878;8.334;2023-09-12T11:06:21;99589.38;;;28.37;58.17
30598;BME280;17365;48.878;8.334;2023-09-12T11:11:58;99588.97;;;28.53;56.92
30598;BME280;17365;48.878;8.334;2023-09-12T11:14:24;99582.09;;;28.39;56.18
30598;BME280;17365;48.878;8.334;2023-09-12T11:19:31;99576.28;;;28.45;58.04
30598;BME280;17365;48.878;8.334;2023-09-12T11:22:20;99569.69;;;28.60;57.07
30598;BME280;17365;48.878;8.334;2023-09-12T11:24:45;99567.06;;;28.92;56.42
30598;BME280;17365;48.878;8.334;2023-09-12T11:27:12;99568.59;;;29.06;56.67
30598;BME280;17365;48.878;8.334;2023-09-12T11:29:38;99558.91;;;29.26;54.27
30598;BME280;17365;48.878;8.334;2023-09-12T11:32:04;99564.50;;;29.23;53.54
30598;BME280;17365;48.878;8.334;2023-09-12T11:34:36;99561.72;;;29.24;51.59
30598;BME280;17365;48.878;8.334;2023-09-12T11:37:01;99558.56;;;29.19;51.82
30598;BME280;17365;48.878;8.334;2023-09-12T11:39:31;99558.97;;;29.15;51.62
30598;BME280;17365;48.878;8.334;2023-09-12T11:41:58;99562.94;;;29.41;50.89
30598;BME280;17365;48.878;8.334;2023-09-12T11:44:24;99560.50;;;28.96;50.39
30598;BME280;17365;48.878;8.334;2023-09-12T11:46:50;99563.13;;;29.28;51.01
30598;BME280;17365;48.878;8.334;2023-09-12T11:49:17;99557.03;;;29.59;50.42
30598;BME280;17365;48.878;8.334;2023-09-12T11:51:49;99562.69;;;29.65;49.15
30598;BME280;17365;48.878;8.334;2023-09-12T11:54:15;99552.31;;;29.72;47.42
30598;BME280;17365;48.878;8.334;2023-09-12T11:56:40;99558.38;;;29.74;46.61
30598;BME280;17365;48.878;8.334;2023-09-12T11:59:06;99560.47;;;29.70;46.74
30598;BME280;17365;48.878;8.334;2023-09-12T12:01:31;99561.25;;;29.82;45.62
30598;BME280;17365;48.878;8.334;2023-09-12T12:03:57;99560.44;;;29.91;45.43
30598;BME280;17365;48.878;8.334;2023-09-12T12:06:22;99566.09;;;29.98;44.71
30598;BME280;17365;48.878;8.334;2023-09-12T12:08:47;99559.47;;;29.92;43.52
30598;BME280;17365;48.878;8.334;2023-09-12T12:11:13;99556.03;;;29.80;43.58
30598;BME280;17365;48.878;8.334;2023-09-12T12:13:38;99560.81;;;30.07;42.73
30598;BME280;17365;48.878;8.334;2023-09-12T12:16:16;99555.09;;;29.91;42.76
30598;BME280;17365;48.878;8.334;2023-09-12T12:18:42;99544.25;;;30.13;41.51
30598;BME280;17365;48.878;8.334;2023-09-12T12:21:07;99552.16;;;30.25;40.55
30598;BME280;17365;48.878;8.334;2023-09-12T12:23:32;99545.38;;;30.21;40.03
30598;BME280;17365;48.878;8.334;2023-09-12T12:26:02;99546.94;;;30.33;40.25
30598;BME280;17365;48.878;8.334;2023-09-12T12:28:27;99543.78;;;30.08;37.89
30598;BME280;17365;48.878;8.334;2023-09-12T12:30:52;99539.50;;;30.27;38.68
30598;BME280;17365;48.878;8.334;2023-09-12T12:33:19;99545.44;;;30.40;38.52
30598;BME280;17365;48.878;8.334;2023-09-12T12:35:44;99540.06;;;30.30;38.07
30598;BME280;17365;48.878;8.334;2023-09-12T12:38:09;99541.22;;;30.47;38.11
30598;BME280;17365;48.878;8.334;2023-09-12T12:40:37;99527.97;;;30.36;37.48
30598;BME280;17365;48.878;8.334;2023-09-12T12:43:02;99516.28;;;30.56;37.89
30598;BME280;17365;48.878;8.334;2023-09-12T12:45:28;99519.00;;;30.66;38.00
30598;BME280;17365;48.878;8.334;2023-09-12T12:47:59;99508.84;;;30.79;37.35
30598;BME280;17365;48.878;8.334;2023-09-12T12:50:25;99520.44;;;30.70;37.88
30598;BME280;17365;48.878;8.334;2023-09-12T12:52:51;99517.88;;;30.68;38.17
30598;BME280;17365;48.878;8.334;2023-09-12T12:55:16;99513.50;;;30.77;37.86
30598;BME280;17365;48.878;8.334;2023-09-12T12:57:44;99512.22;;;31.00;38.20
30598;BME280;17365;48.878;8.334;2023-09-12T13:02:36;99506.63;;;30.94;37.78
30598;BME280;17365;48.878;8.334;2023-09-12T13:05:01;99512.75;;;30.36;37.29
30598;BME280;17365;48.878;8.334;2023-09-12T13:07:27;99507.50;;;30.35;38.24
30598;BME280;17365;48.878;8.334;2023-09-12T13:09:52;99504.63;;;30.67;37.61
30598;BME280;17365;48.878;8.334;2023-09-12T13:12:17;99494.06;;;30.85;38.02